Time;durP1;ratioP1;P1;durP2;ratioP2;P2;SDS_P1;SDS_P2;PMS_P1;PMS_P2;Temp;Humidity;BMP_temperature;BMP_pressure;BME280_temperature;BME280_humidity;BME280_pressure;Samples;Min_cycle;Max_cycle;Signal;HPM_P1;HPM_P2
2021/04/30 00:01:26;;;;;;;7.38;2.10;;;21.40;43.60;;;;;;5035160;28;20025;-48
2021/04/30 00:03:51;;;;;;;3.63;2.00;;;21.40;43.60;;;;;;5035209;28;20032;-49
2021/04/30 00:06:17;;;;;;;4.35;2.05;;;21.40;43.70;;;;;;5035392;28;20026;-51
2021/04/30 00:08:42;;;;;;;2.65;1.55;;;21.40;43.60;;;;;;5034762;28;20344;-49
2021/04/30 00:11:08;;;;;;;4.38;2.05;;;21.40;43.60;;;;;;5035226;28;20030;-48
2021/04/30 00:13:35;;;;;;;2.22;1.88;;;21.40;43.60;;;;;;5034672;28;20479;-51
2021/04/30 00:16:01;;;;;;;6.68;1.88;;;21.40;43.60;;;;;;5035100;28;20083;-48
2021/04/30 00:18:26;;;;;;;4.78;1.75;;;21.40;43.70;;;;;;5034847;28;20467;-48
2021/04/30 00:20:54;;;;;;;3.65;1.73;;;21.30;43.60;;;;;;5035189;28;20067;-47
2021/04/30 00:23:25;;;;;;;5.55;1.70;;;21.40;43.70;;;;;;5034853;28;20101;-50
2021/04/30 00:25:52;;;;;;;4.18;1.90;;;21.30;43.60;;;;;;5035157;28;20336;-49
2021/04/30 00:28:17;;;;;;;2.65;1.92;;;21.30;43.60;;;;;;5034873;28;20318;-52
2021/04/30 00:30:43;;;;;;;3.78;1.58;;;21.30;43.60;;;;;;5034697;28;20033;-50
2021/04/30 00:33:09;;;;;;;3.92;1.92;;;21.30;43.70;;;;;;5035269;28;20053;-48
2021/04/30 00:35:35;;;;;;;3.25;1.73;;;21.30;43.60;;;;;;5017235;28;20451;-50
2021/04/30 00:38:01;;;;;;;3.58;1.95;;;21.30;43.60;;;;;;5034684;28;20038;-49
2021/04/30 00:40:26;;;;;;;3.55;1.70;;;21.30;43.60;;;;;;5034678;28;20025;-51
2021/04/30 00:42:56;;;;;;;4.57;2.00;;;21.30;43.60;;;;;;5017466;28;20032;-47
2021/04/30 00:45:24;;;;;;;4.45;1.85;;;21.20;43.60;;;;;;5034797;28;20057;-51
2021/04/30 00:47:53;;;;;;;4.47;2.00;;;21.20;43.60;;;;;;5034643;28;20127;-47
2021/04/30 00:50:21;;;;;;;3.55;1.85;;;21.20;43.60;;;;;;5034559;28;20029;-47
2021/04/30 00:52:46;;;;;;;3.65;1.60;;;21.20;43.60;;;;;;5036297;28;20033;-48
2021/04/30 00:55:14;;;;;;;3.45;1.77;;;21.20;43.60;;;;;;5038594;28;20026;-52
2021/04/30 00:57:46;;;;;;;4.55;1.70;;;21.20;43.60;;;;;;5038366;28;20030;-51
2021/04/30 01:00:13;;;;;;;4.47;2.08;;;21.20;43.60;;;;;;5038466;28;20029;-52
2021/04/30 01:02:39;;;;;;;2.88;1.73;;;21.20;43.60;;;;;;5038303;28;20445;-49
2021/04/30 01:05:06;;;;;;;4.40;2.00;;;21.20;43.60;;;;;;5038350;28;20028;-54
2021/04/30 01:07:33;;;;;;;4.30;1.73;;;21.10;43.60;;;;;;5038379;28;20025;-50
2021/04/30 01:09:58;;;;;;;4.10;1.65;;;21.20;43.60;;;;;;5038470;28;20306;-47
2021/04/30 01:12:24;;;;;;;2.83;1.60;;;21.20;43.60;;;;;;5038337;28;20051;-50
2021/04/30 01:14:51;;;;;;;2.45;1.40;;;21.20;43.60;;;;;;5004566;28;20022;-50
2021/04/30 01:17:17;;;;;;;2.85;1.77;;;21.20;43.60;;;;;;5038252;28;20340;-47
2021/04/30 01:19:43;;;;;;;3.05;1.63;;;21.20;43.60;;;;;;5038464;28;20084;-50
2021/04/30 01:22:09;;;;;;;4.22;1.75;;;21.10;43.50;;;;;;5037918;28;20049;-46
2021/04/30 01:24:34;;;;;;;3.22;1.70;;;21.10;43.60;;;;;;5038166;28;20084;-50
2021/04/30 01:27:00;;;;;;;4.80;1.98;;;21.10;43.60;;;;;;5037452;28;20033;-49
2021/04/30 01:29:26;;;;;;;3.65;1.90;;;21.10;43.60;;;;;;5037978;28;20030;-48
2021/04/30 01:31:51;;;;;;;3.65;1.88;;;21.10;43.60;;;;;;5037780;28;20045;-49
2021/04/30 01:34:17;;;;;;;4.30;1.70;;;21.10;43.60;;;;;;5037815;28;20021;-47
2021/04/30 01:36:43;;;;;;;2.38;1.73;;;21.10;43.60;;;;;;5037798;28;20036;-47
2021/04/30 01:39:14;;;;;;;5.10;1.70;;;21.10;43.60;;;;;;5037601;28;20034;-48
2021/04/30 01:41:41;;;;;;;2.90;1.60;;;21.00;43.60;;;;;;5037732;28;20027;-49
2021/04/30 01:44:11;;;;;;;4.50;2.10;;;21.10;43.60;;;;;;5037753;28;20017;-49
2021/04/30 01:46:39;;;;;;;4.18;2.10;;;21.00;43.60;;;;;;5037592;28;20072;-49
2021/04/30 01:49:06;;;;;;;6.10;2.03;;;21.10;43.60;;;;;;5037507;28;20037;-50
2021/04/30 01:51:34;;;;;;;7.15;2.63;;;21.00;43.60;;;;;;5037553;28;20083;-47
2021/04/30 01:54:00;;;;;;;3.03;1.75;;;21.00;43.60;;;;;;5037202;28;20036;-50
2021/04/30 01:56:25;;;;;;;5.65;2.20;;;21.00;43.60;;;;;;5037388;28;20022;-49
2021/04/30 01:58:51;;;;;;;2.90;1.40;;;21.00;43.60;;;;;;5037353;28;20037;-47
2021/04/30 02:01:18;;;;;;;4.22;2.38;;;21.00;43.60;;;;;;5037365;28;20029;-49
2021/04/30 02:03:43;;;;;;;4.55;1.88;;;21.00;43.60;;;;;;5036955;28;20021;-48
2021/04/30 02:06:09;;;;;;;3.03;1.85;;;21.00;43.60;;;;;;5037093;28;20436;-47
2021/04/30 02:08:34;;;;;;;6.35;2.15;;;21.00;43.60;;;;;;5037229;28;20026;-50
2021/04/30 02:11:00;;;;;;;3.83;1.73;;;21.00;43.70;;;;;;5037037;28;20030;-50
2021/04/30 02:13:26;;;;;;;4.65;2.00;;;21.00;43.60;;;;;;5037484;28;20041;-48
2021/04/30 02:15:53;;;;;;;3.22;1.52;;;20.90;43.60;;;;;;5037549;28;20017;-49
2021/04/30 02:18:20;;;;;;;3.33;1.40;;;21.00;43.70;;;;;;5037028;28;20025;-48
2021/04/30 02:20:45;;;;;;;3.42;1.85;;;20.90;43.60;;;;;;5036990;28;20025;-51
2021/04/30 02:23:12;;;;;;;3.85;1.95;;;20.90;44.30;;;;;;5036704;28;20025;-48
2021/04/30 02:25:38;;;;;;;4.80;2.10;;;20.90;43.60;;;;;;5036465;28;20518;-47
2021/04/30 02:28:04;;;;;;;5.25;2.15;;;20.90;43.60;;;;;;5036629;28;20029;-48
2021/04/30 02:30:32;;;;;;;4.18;1.85;;;20.90;43.60;;;;;;5036532;28;20467;-48
2021/04/30 02:32:58;;;;;;;4.85;1.85;;;20.90;43.70;;;;;;4999523;28;20405;-50
2021/04/30 02:35:27;;;;;;;4.80;2.20;;;20.90;43.70;;;;;;4997599;28;20026;-49
2021/04/30 02:37:54;;;;;;;5.35;1.95;;;20.90;43.70;;;;;;4997099;28;20034;-48
2021/04/30 02:40:25;;;;;;;6.22;2.05;;;20.80;43.60;;;;;;4997224;28;20030;-48
2021/04/30 02:42:51;;;;;;;3.95;1.80;;;20.90;43.70;;;;;;4997284;28;20088;-48
2021/04/30 02:45:17;;;;;;;5.55;1.95;;;20.90;43.70;;;;;;4997715;28;20030;-49
2021/04/30 02:47:48;;;;;;;5.13;1.90;;;20.90;43.70;;;;;;4997468;28;20349;-47
2021/04/30 02:50:16;;;;;;;5.65;1.98;;;20.90;43.70;;;;;;4996783;28;20319;-47
2021/04/30 02:52:43;;;;;;;4.47;2.10;;;20.90;43.70;;;;;;4996991;28;20033;-47
2021/04/30 02:55:10;;;;;;;4.15;2.05;;;20.90;43.70;;;;;;4996752;28;20315;-47
2021/04/30 02:57:35;;;;;;;4.03;1.85;;;20.80;43.70;;;;;;4997262;28;20022;-47
2021/04/30 03:00:02;;;;;;;5.75;2.15;;;20.80;43.70;;;;;;4997044;28;20030;-47
2021/04/30 03:02:28;;;;;;;3.35;1.90;;;20.80;43.70;;;;;;4996847;28;20429;-48
2021/04/30 03:04:53;;;;;;;5.60;1.83;;;20.80;43.70;;;;;;4997661;28;20026;-53
2021/04/30 03:07:19;;;;;;;2.80;1.83;;;20.80;43.70;;;;;;4996859;28;20457;-48
2021/04/30 03:09:44;;;;;;;3.85;2.05;;;20.80;43.80;;;;;;4997270;28;20033;-47
2021/04/30 03:12:10;;;;;;;7.70;2.10;;;20.80;43.80;;;;;;4996768;28;20402;-47
2021/04/30 03:14:35;;;;;;;5.38;2.10;;;20.80;43.80;;;;;;4995962;28;20353;-49
2021/04/30 03:17:01;;;;;;;4.60;2.35;;;20.80;43.80;;;;;;4996572;28;20083;-50
2021/04/30 03:19:26;;;;;;;4.28;2.28;;;20.80;43.80;;;;;;4996954;28;20030;-48
2021/04/30 03:21:52;;;;;;;6.15;2.33;;;20.80;43.80;;;;;;4996349;28;20026;-47
2021/04/30 03:24:17;;;;;;;2.53;1.67;;;20.80;43.80;;;;;;4996473;28;20026;-47
2021/04/30 03:26:43;;;;;;;6.07;2.10;;;20.70;43.80;;;;;;4996469;28;20353;-47
2021/04/30 03:29:09;;;;;;;6.10;2.13;;;20.70;43.80;;;;;;4996774;28;20029;-47
2021/04/30 03:31:34;;;;;;;3.78;2.00;;;20.70;43.80;;;;;;5006325;28;20171;-48
2021/04/30 03:34:00;;;;;;;4.07;2.08;;;20.70;43.80;;;;;;5035599;28;20025;-50
2021/04/30 03:36:26;;;;;;;4.03;2.20;;;20.70;44.40;;;;;;5035486;28;20026;-49
2021/04/30 03:38:51;;;;;;;5.70;2.40;;;20.70;43.80;;;;;;5035357;28;20072;-50
2021/04/30 03:41:17;;;;;;;7.07;2.40;;;20.70;43.80;;;;;;5035462;28;20058;-49
2021/04/30 03:43:43;;;;;;;4.13;1.98;;;20.70;43.80;;;;;;5035485;28;20029;-49
2021/04/30 03:46:10;;;;;;;4.05;2.25;;;20.70;43.80;;;;;;5017941;28;20031;-48
2021/04/30 03:48:36;;;;;;;5.15;2.38;;;20.70;43.90;;;;;;5018059;28;20036;-52
2021/04/30 03:51:02;;;;;;;5.88;2.10;;;20.70;43.80;;;;;;5035104;28;20383;-47
2021/04/30 03:53:27;;;;;;;6.72;2.50;;;20.70;43.90;;;;;;5035514;28;20040;-47
2021/04/30 03:55:53;;;;;;;4.72;2.38;;;20.70;43.90;;;;;;5035618;28;20090;-49
2021/04/30 03:58:19;;;;;;;3.70;2.45;;;20.60;43.80;;;;;;5034831;28;20036;-48
2021/04/30 04:00:44;;;;;;;5.85;2.22;;;20.70;43.90;;;;;;5035435;28;20021;-49
2021/04/30 04:03:10;;;;;;;5.65;2.33;;;20.70;43.90;;;;;;5035156;28;20030;-49
2021/04/30 04:05:36;;;;;;;5.63;2.30;;;20.60;43.90;;;;;;5035427;28;20305;-48
2021/04/30 04:08:02;;;;;;;5.43;2.40;;;20.60;43.90;;;;;;5035713;28;20025;-48
2021/04/30 04:10:28;;;;;;;5.28;2.25;;;20.70;43.90;;;;;;5035039;28;20018;-48
2021/04/30 04:12:53;;;;;;;3.60;2.05;;;20.70;43.90;;;;;;5035323;28;20025;-49
2021/04/30 04:15:19;;;;;;;4.90;2.10;;;20.60;43.90;;;;;;5034844;28;20029;-49
2021/04/30 04:17:44;;;;;;;5.28;1.88;;;20.60;43.90;;;;;;5035027;28;20021;-51
2021/04/30 04:20:11;;;;;;;5.45;2.53;;;20.60;43.90;;;;;;5035058;28;20421;-53
2021/04/30 04:22:37;;;;;;;4.85;2.30;;;20.60;44.00;;;;;;5035380;28;20035;-47
2021/04/30 04:25:05;;;;;;;4.30;2.22;;;20.60;44.00;;;;;;5034886;28;20034;-49
2021/04/30 04:27:30;;;;;;;4.22;2.15;;;20.60;44.00;;;;;;5034564;28;20033;-48
2021/04/30 04:29:56;;;;;;;4.50;2.13;;;20.60;44.00;;;;;;5034673;28;20088;-52
2021/04/30 04:32:21;;;;;;;7.55;2.33;;;20.60;44.10;;;;;;5035050;28;20128;-48
2021/04/30 04:34:47;;;;;;;13.27;2.88;;;20.60;43.90;;;;;;5034364;28;20032;-50
2021/04/30 04:37:12;;;;;;;14.95;2.97;;;20.60;43.50;;;;;;5034823;28;20036;-48
2021/04/30 04:39:38;;;;;;;11.40;3.03;;;20.60;43.50;;;;;;5035128;28;20076;-46
2021/04/30 04:42:05;;;;;;;5.47;2.80;;;20.50;43.40;;;;;;5034429;28;20567;-48
2021/04/30 04:44:31;;;;;;;10.30;2.95;;;20.50;43.60;;;;;;5034352;28;20033;-49
2021/04/30 04:46:57;;;;;;;10.82;2.60;;;20.50;43.80;;;;;;5034407;28;20025;-47
2021/04/30 04:49:23;;;;;;;9.13;2.53;;;20.50;43.90;;;;;;5034182;28;20500;-46
2021/04/30 04:51:48;;;;;;;10.90;2.40;;;20.50;44.00;;;;;;5034859;28;20100;-48
2021/04/30 04:54:14;;;;;;;9.02;2.70;;;20.50;44.20;;;;;;5034679;28;20151;-47
2021/04/30 04:56:39;;;;;;;8.98;2.55;;;20.50;44.30;;;;;;5034844;28;20110;-48
2021/04/30 04:59:05;;;;;;;8.73;3.22;;;20.40;44.50;;;;;;5034882;28;20037;-46
2021/04/30 05:01:30;;;;;;;6.18;2.33;;;20.50;44.70;;;;;;5034545;28;20133;-46
2021/04/30 05:03:56;;;;;;;6.20;2.40;;;20.50;44.80;;;;;;5033539;28;20098;-48
2021/04/30 05:06:21;;;;;;;10.70;2.55;;;20.40;44.80;;;;;;5034445;28;20024;-48
2021/04/30 05:08:47;;;;;;;6.13;2.53;;;20.50;45.30;;;;;;5033306;28;20099;-49
2021/04/30 05:11:12;;;;;;;6.47;2.25;;;20.50;45.20;;;;;;5034051;28;20029;-50
2021/04/30 05:13:38;;;;;;;6.03;2.22;;;20.50;45.10;;;;;;5034008;28;20017;-49
2021/04/30 05:16:04;;;;;;;9.30;1.98;;;20.60;45.10;;;;;;5034347;28;20026;-49
2021/04/30 05:18:33;;;;;;;12.48;1.92;;;20.60;45.00;;;;;;5034489;28;20041;-47
2021/04/30 05:20:59;;;;;;;10.88;2.72;;;20.60;45.00;;;;;;5034433;28;20080;-47
2021/04/30 05:23:25;;;;;;;3.70;2.08;;;20.60;45.00;;;;;;5033959;28;20095;-51
2021/04/30 05:25:53;;;;;;;4.05;1.98;;;20.70;45.10;;;;;;5034187;28;20043;-51
2021/04/30 05:28:19;;;;;;;7.57;2.10;;;20.70;45.10;;;;;;5034050;28;20443;-46
2021/04/30 05:30:45;;;;;;;3.92;2.10;;;20.70;45.10;;;;;;5033902;28;20022;-47
2021/04/30 05:33:10;;;;;;;6.25;2.22;;;20.70;45.30;;;;;;5034028;28;20050;-50
2021/04/30 05:35:36;;;;;;;8.15;2.13;;;20.80;45.40;;;;;;5034358;28;20041;-51
2021/04/30 05:38:04;;;;;;;6.07;2.05;;;20.80;45.30;;;;;;5034569;28;20030;-47
2021/04/30 05:40:29;;;;;;;4.45;2.00;;;20.80;45.40;;;;;;5038013;28;20026;-46
2021/04/30 05:42:55;;;;;;;5.25;1.90;;;20.80;45.40;;;;;;5037806;28;20032;-47
2021/04/30 05:45:21;;;;;;;4.80;1.83;;;20.90;45.40;;;;;;5037377;28;20075;-51
2021/04/30 05:47:46;;;;;;;5.95;1.90;;;20.90;45.40;;;;;;5037947;28;20149;-47
2021/04/30 05:50:13;;;;;;;8.00;2.08;;;20.90;45.40;;;;;;5037502;28;20060;-49
2021/04/30 05:52:39;;;;;;;4.45;1.92;;;20.90;45.40;;;;;;5037344;28;20045;-48
2021/04/30 05:55:05;;;;;;;3.75;1.33;;;20.90;45.40;;;;;;5037499;28;20030;-46
2021/04/30 05:57:31;;;;;;;4.50;1.45;;;20.90;45.40;;;;;;5037362;28;20037;-52
2021/04/30 05:59:56;;;;;;;4.30;2.22;;;20.90;45.40;;;;;;5037307;28;20060;-51
2021/04/30 06:02:22;;;;;;;3.58;1.67;;;20.90;45.60;;;;;;5036970;28;20341;-49
2021/04/30 06:04:47;;;;;;;11.68;2.63;;;21.00;45.70;;;;;;5037027;28;20049;-50
2021/04/30 06:07:13;;;;;;;5.93;2.13;;;21.00;45.70;;;;;;5037478;28;20102;-47
2021/04/30 06:09:39;;;;;;;4.13;1.88;;;21.00;45.60;;;;;;5037317;28;20025;-51
2021/04/30 06:12:05;;;;;;;4.65;1.73;;;21.00;45.60;;;;;;5037008;28;20045;-50
2021/04/30 06:14:32;;;;;;;4.38;2.05;;;21.00;45.50;;;;;;5037052;28;20034;-47
2021/04/30 06:16:58;;;;;;;3.45;1.52;;;21.10;45.50;;;;;;5037041;28;20421;-51
2021/04/30 06:19:24;;;;;;;3.35;1.80;;;21.00;45.50;;;;;;5036964;28;20220;-49
2021/04/30 06:21:51;;;;;;;7.72;2.00;;;21.00;45.50;;;;;;5036507;28;20025;-50
2021/04/30 06:24:17;;;;;;;3.53;1.95;;;21.10;45.80;;;;;;5036636;28;20515;-48
2021/04/30 06:26:42;;;;;;;2.90;1.88;;;21.10;45.70;;;;;;5036812;28;20053;-50
2021/04/30 06:29:08;;;;;;;7.95;2.00;;;21.10;45.70;;;;;;5036874;28;20032;-49
2021/04/30 06:31:38;;;;;;;4.55;2.03;;;21.10;45.70;;;;;;5036772;28;20048;-47
2021/04/30 06:34:05;;;;;;;3.58;1.80;;;21.10;45.70;;;;;;5036888;28;20059;-47
2021/04/30 06:36:31;;;;;;;2.38;1.58;;;21.10;45.70;;;;;;5036112;28;20034;-48
2021/04/30 06:38:57;;;;;;;5.28;2.10;;;21.10;45.70;;;;;;5036150;28;20030;-47
2021/04/30 06:41:22;;;;;;;3.63;1.70;;;21.20;45.80;;;;;;5036552;28;20025;-48
2021/04/30 06:43:48;;;;;;;4.10;1.67;;;21.10;46.40;;;;;;5036223;28;20102;-50
2021/04/30 06:46:13;;;;;;;4.15;1.48;;;21.20;45.80;;;;;;5036282;28;20018;-47
2021/04/30 06:48:39;;;;;;;2.40;1.60;;;21.20;45.80;;;;;;5036239;28;20453;-47
2021/04/30 06:51:05;;;;;;;2.28;1.40;;;21.20;45.80;;;;;;5019084;28;20037;-48
2021/04/30 06:53:31;;;;;;;2.80;1.83;;;21.20;45.80;;;;;;5036777;28;20029;-48
2021/04/30 06:55:57;;;;;;;4.78;2.03;;;21.20;45.90;;;;;;5036343;28;20025;-48
2021/04/30 06:58:22;;;;;;;6.70;2.78;;;21.20;46.30;;;;;;5036273;28;20454;-47
2021/04/30 07:00:48;;;;;;;4.95;2.20;;;21.20;46.40;;;;;;5036016;28;20116;-48
2021/04/30 07:03:13;;;;;;;5.90;2.20;;;21.20;46.40;;;;;;5036182;28;20444;-47
2021/04/30 07:05:39;;;;;;;9.90;2.33;;;21.20;46.40;;;;;;5036461;28;20104;-48
2021/04/30 07:08:04;;;;;;;7.40;2.40;;;21.20;46.50;;;;;;5036385;28;20071;-48
2021/04/30 07:10:33;;;;;;;6.85;2.97;;;21.20;46.50;;;;;;5036483;28;20032;-47
2021/04/30 07:12:59;;;;;;;6.30;2.17;;;21.20;46.80;;;;;;5035723;28;20021;-47
2021/04/30 07:15:25;;;;;;;5.22;2.25;;;21.20;46.80;;;;;;5035867;28;20059;-51
2021/04/30 07:17:51;;;;;;;4.32;1.90;;;21.30;46.70;;;;;;5035497;28;20022;-50
2021/04/30 07:20:16;;;;;;;7.40;2.03;;;21.30;46.70;;;;;;5034504;28;20388;-49
2021/04/30 07:22:42;;;;;;;3.90;1.90;;;21.30;46.80;;;;;;5035953;28;20025;-48
2021/04/30 07:25:08;;;;;;;7.45;2.67;;;21.30;46.80;;;;;;5035667;28;20017;-49
2021/04/30 07:27:34;;;;;;;5.80;1.98;;;21.30;47.10;;;;;;5035376;28;20484;-48
2021/04/30 07:29:59;;;;;;;7.18;3.08;;;21.30;46.90;;;;;;5034677;28;20107;-55
2021/04/30 07:32:25;;;;;;;7.72;2.60;;;21.30;47.00;;;;;;5035273;28;20124;-51
2021/04/30 07:34:51;;;;;;;3.35;2.50;;;21.30;46.80;;;;;;5035529;28;20091;-52
2021/04/30 07:37:16;;;;;;;7.78;2.20;;;21.30;46.80;;;;;;5035444;28;20034;-53
2021/04/30 07:39:43;;;;;;;11.38;2.83;;;21.30;46.70;;;;;;5035683;28;20053;-50
2021/04/30 07:42:09;;;;;;;5.10;2.58;;;21.30;46.80;;;;;;5035639;28;20048;-53
2021/04/30 07:44:35;;;;;;;7.45;2.20;;;21.30;46.70;;;;;;5035401;28;20032;-47
2021/04/30 07:47:00;;;;;;;9.60;2.45;;;21.30;46.70;;;;;;5035329;28;20022;-52
2021/04/30 07:49:26;;;;;;;8.15;2.47;;;21.30;47.00;;;;;;5035523;28;20057;-47
2021/04/30 07:51:52;;;;;;;7.65;2.88;;;21.30;47.00;;;;;;5035327;28;20037;-50
2021/04/30 07:54:17;;;;;;;8.38;2.33;;;21.40;47.00;;;;;;5035187;28;20026;-50
2021/04/30 07:56:44;;;;;;;5.05;2.38;;;21.40;47.00;;;;;;5035325;28;20025;-50
2021/04/30 07:59:10;;;;;;;7.20;2.33;;;21.40;47.00;;;;;;5034386;28;20021;-49
2021/04/30 08:01:36;;;;;;;5.90;2.97;;;21.40;47.00;;;;;;5034579;28;20364;-48
2021/04/30 08:04:02;;;;;;;6.82;2.63;;;21.40;47.10;;;;;;5035386;28;20122;-45
2021/04/30 08:06:27;;;;;;;8.02;3.40;;;21.40;47.10;;;;;;5035289;28;20452;-49
2021/04/30 08:08:53;;;;;;;5.95;2.30;;;21.40;47.00;;;;;;5035016;28;20360;-46
2021/04/30 08:11:19;;;;;;;7.07;2.88;;;21.40;47.00;;;;;;5034728;28;20032;-48
2021/04/30 08:13:44;;;;;;;7.05;2.67;;;21.40;47.00;;;;;;5034625;28;20104;-48
2021/04/30 08:16:10;;;;;;;4.75;2.28;;;21.40;46.90;;;;;;5034894;28;20351;-45
2021/04/30 08:18:36;;;;;;;5.57;2.22;;;21.40;46.80;;;;;;5035139;28;20511;-47
2021/04/30 08:21:03;;;;;;;7.55;2.40;;;21.40;46.70;;;;;;5034515;28;20526;-46
2021/04/30 08:23:28;;;;;;;5.72;2.45;;;21.40;46.70;;;;;;5035104;28;20025;-46
2021/04/30 08:25:54;;;;;;;6.97;2.35;;;21.40;46.60;;;;;;5034755;28;20519;-47
2021/04/30 08:28:19;;;;;;;4.80;2.03;;;21.40;46.60;;;;;;5034471;28;20037;-45
2021/04/30 08:30:45;;;;;;;5.25;1.92;;;21.50;46.60;;;;;;5034693;28;20108;-45
2021/04/30 08:33:10;;;;;;;5.43;2.45;;;21.40;46.50;;;;;;5035376;28;20064;-47
2021/04/30 08:35:36;;;;;;;6.35;2.03;;;21.40;46.50;;;;;;5034741;28;20099;-45
2021/04/30 08:38:02;;;;;;;4.68;2.22;;;21.50;46.50;;;;;;5034566;28;20079;-45
2021/04/30 08:40:28;;;;;;;7.20;2.17;;;21.50;46.40;;;;;;5034734;28;20063;-47
2021/04/30 08:42:55;;;;;;;3.03;2.20;;;21.50;46.40;;;;;;5034072;28;20440;-48
2021/04/30 08:45:20;;;;;;;2.92;2.20;;;21.50;46.30;;;;;;5034604;28;20305;-47
2021/04/30 08:47:46;;;;;;;4.18;2.22;;;21.50;46.30;;;;;;5035058;28;20087;-47
2021/04/30 08:50:13;;;;;;;8.38;2.65;;;21.50;46.20;;;;;;5034480;28;20036;-47
2021/04/30 08:52:40;;;;;;;6.53;2.88;;;21.50;46.20;;;;;;5034597;28;20022;-47
2021/04/30 08:55:10;;;;;;;6.45;3.20;;;21.50;46.10;;;;;;5034279;28;20326;-45
2021/04/30 08:57:37;;;;;;;9.82;3.05;;;21.50;46.10;;;;;;5034640;28;20344;-45
2021/04/30 09:00:05;;;;;;;7.28;2.90;;;21.50;46.20;;;;;;5035126;28;20044;-46
2021/04/30 09:02:32;;;;;;;5.72;3.08;;;21.50;46.20;;;;;;5034907;28;20053;-45
2021/04/30 09:04:58;;;;;;;7.05;3.15;;;21.50;46.20;;;;;;5034527;28;20036;-44
2021/04/30 09:07:25;;;;;;;7.13;2.97;;;21.50;46.20;;;;;;5034398;28;20021;-44
2021/04/30 09:10:04;;;;;;;10.88;3.75;;;21.50;46.40;;;;;;5034592;28;20021;-51
2021/04/30 09:12:30;;;;;;;15.95;5.68;;;21.50;46.50;;;;;;5034275;28;20095;-52
2021/04/30 09:14:57;;;;;;;12.70;5.15;;;21.50;46.10;;;;;;5038024;28;20104;-50
2021/04/30 09:17:23;;;;;;;10.50;4.22;;;21.40;45.80;;;;;;5037922;28;20084;-55
2021/04/30 09:19:55;;;;;;;9.57;4.43;;;21.40;46.00;;;;;;5037560;28;20029;-45
2021/04/30 09:22:27;;;;;;;9.70;4.10;;;21.40;46.10;;;;;;5038131;28;20029;-45
2021/04/30 09:25:01;;;;;;;8.75;3.60;;;21.40;46.00;;;;;;5038152;28;20053;-47
2021/04/30 09:27:30;;;;;;;;;;;21.40;46.00;;;;;;5038583;28;20025;-46
2021/04/30 09:30:27;;;;;;;12.70;3.33;;;21.40;46.10;;;;;;5038089;28;19905;-45
2021/04/30 09:33:08;;;;;;;10.85;3.25;;;21.50;46.00;;;;;;5038148;28;20054;-45
2021/04/30 09:35:37;;;;;;;9.23;3.55;;;21.50;46.00;;;;;;5038323;28;20117;-45
2021/04/30 09:38:25;;;;;;;9.07;4.00;;;21.40;45.90;;;;;;5037869;28;20079;-46
2021/04/30 09:41:04;;;;;;;10.65;3.33;;;21.40;46.00;;;;;;5037800;28;20156;-45
2021/04/30 09:43:42;;;;;;;9.95;4.10;;;21.40;46.00;;;;;;5037963;28;20022;-46
2021/04/30 09:46:32;;;;;;;8.45;3.75;;;21.40;46.00;;;;;;5037396;28;20570;-45
2021/04/30 09:49:01;;;;;;;7.63;3.30;;;21.40;45.90;;;;;;5037891;28;20037;-46
2021/04/30 09:51:44;;;;;;;8.00;3.22;;;21.50;46.00;;;;;;5037749;28;20037;-44
2021/04/30 09:54:20;;;;;;;7.00;3.35;;;21.50;46.00;;;;;;5037958;28;20017;-44
2021/04/30 09:56:47;;;;;;;7.28;2.95;;;21.50;45.90;;;;;;5037674;28;20155;-45
2021/04/30 09:59:22;;;;;;;10.32;4.07;;;21.40;45.90;;;;;;5037529;28;20070;-50
2021/04/30 10:02:04;;;;;;;8.43;3.38;;;21.40;45.90;;;;;;5037323;28;20025;-45
2021/04/30 10:04:34;;;;;;;10.02;3.40;;;21.40;45.80;;;;;;5037465;28;20408;-44
2021/04/30 10:07:01;;;;;;;9.82;3.53;;;21.40;45.80;;;;;;5037272;28;20471;-47
2021/04/30 10:09:31;;;;;;;11.15;3.58;;;21.40;45.80;;;;;;5037381;28;20037;-44
2021/04/30 10:11:57;;;;;;;7.13;3.45;;;21.40;45.80;;;;;;5036939;28;20032;-46
2021/04/30 10:14:24;;;;;;;6.90;3.63;;;21.40;45.80;;;;;;5037452;28;20463;-45
2021/04/30 10:16:51;;;;;;;5.85;3.40;;;21.40;45.80;;;;;;5037014;28;20340;-45
2021/04/30 10:19:17;;;;;;;7.53;3.80;;;21.40;45.80;;;;;;5037236;28;20049;-45
2021/04/30 10:21:44;;;;;;;7.05;3.08;;;21.40;45.80;;;;;;5036937;28;20022;-43
2021/04/30 10:24:18;;;;;;;6.55;3.35;;;21.40;45.80;;;;;;5036655;28;20021;-43
2021/04/30 10:26:44;;;;;;;12.10;3.20;;;21.50;45.70;;;;;;5036802;28;20029;-43
2021/04/30 10:29:15;;;;;;;5.90;2.85;;;21.50;45.70;;;;;;5036897;28;20095;-43
2021/04/30 10:31:46;;;;;;;5.82;3.10;;;21.50;45.60;;;;;;5037087;28;20049;-43
2021/04/30 10:34:20;;;;;;;5.97;2.90;;;21.50;45.60;;;;;;5036471;28;20040;-45
2021/04/30 10:36:50;;;;;;;5.95;2.88;;;21.50;45.50;;;;;;5036370;28;20364;-45
2021/04/30 10:39:33;;;;;;;7.60;2.58;;;21.50;45.50;;;;;;5036604;28;20052;-45
2021/04/30 10:42:08;;;;;;;3.50;2.57;;;21.50;45.40;;;;;;5037081;28;20021;-42
2021/04/30 10:44:39;;;;;;;4.00;2.53;;;21.50;45.40;;;;;;5037086;28;20025;-43
2021/04/30 10:47:04;;;;;;;6.28;3.28;;;21.50;45.40;;;;;;5036535;28;20034;-42
2021/04/30 10:49:30;;;;;;;8.10;2.75;;;21.50;45.30;;;;;;5036472;28;20108;-42
2021/04/30 10:52:25;;;;;;;5.38;2.33;;;21.60;45.30;;;;;;5036548;28;20025;-43
2021/04/30 10:55:05;;;;;;;4.45;2.53;;;21.60;45.30;;;;;;5035905;28;20026;-43
2021/04/30 10:57:52;;;;;;;5.63;2.50;;;21.60;45.20;;;;;;5018932;28;20053;-45
2021/04/30 11:00:23;;;;;;;4.25;2.60;;;21.60;45.20;;;;;;5036320;28;20029;-43
2021/04/30 11:03:12;;;;;;;3.90;2.20;;;21.60;45.20;;;;;;5036195;28;20126;-52
2021/04/30 11:05:52;;;;;;;4.68;2.63;;;21.60;45.20;;;;;;5036197;28;20017;-49
2021/04/30 11:08:17;;;;;;;3.85;2.42;;;21.60;45.20;;;;;;5035853;28;20045;-48
2021/04/30 11:10:43;;;;;;;4.15;2.60;;;21.60;45.10;;;;;;5035768;28;20026;-50
2021/04/30 11:13:16;;;;;;;3.85;2.33;;;21.60;45.10;;;;;;5036089;28;20053;-47
2021/04/30 11:15:47;;;;;;;4.20;2.40;;;21.60;45.10;;;;;;5036243;28;20397;-48
2021/04/30 11:18:19;;;;;;;4.03;2.67;;;21.60;45.10;;;;;;5036012;28;20033;-50
2021/04/30 11:20:58;;;;;;;4.10;2.22;;;21.60;45.00;;;;;;5035721;28;20099;-48
2021/04/30 11:23:27;;;;;;;5.00;2.97;;;21.60;45.00;;;;;;5002690;28;20032;-52
2021/04/30 11:25:57;;;;;;;4.40;2.72;;;21.60;45.00;;;;;;5036047;28;20064;-48
2021/04/30 11:28:43;;;;;;;4.32;2.78;;;21.60;44.90;;;;;;5035728;28;20025;-52
2021/04/30 11:31:15;;;;;;;4.20;3.03;;;21.60;44.90;;;;;;5021157;28;20068;-54
2021/04/30 11:34:04;;;;;;;5.43;3.20;;;21.60;44.90;;;;;;5035727;28;20064;-46
2021/04/30 11:36:31;;;;;;;4.80;2.70;;;21.60;44.90;;;;;;5034531;28;20353;-45
2021/04/30 11:39:19;;;;;;;3.72;2.70;;;21.60;44.90;;;;;;5035173;28;20069;-48
2021/04/30 11:41:46;;;;;;;4.50;2.83;;;21.60;44.90;;;;;;5035577;28;20121;-48
2021/04/30 11:44:12;;;;;;;5.53;3.15;;;21.50;44.80;;;;;;5035913;28;20389;-46
2021/04/30 11:46:38;;;;;;;4.13;2.80;;;21.50;44.90;;;;;;5035259;28;20028;-51
2021/04/30 11:49:04;;;;;;;5.78;3.92;;;21.50;44.90;;;;;;5035105;28;20440;-44
2021/04/30 11:51:30;;;;;;;7.80;3.03;;;21.50;44.90;;;;;;5035425;28;20021;-42
2021/04/30 11:53:58;;;;;;;5.32;3.40;;;21.50;44.80;;;;;;5035210;28;20029;-47
2021/04/30 11:56:31;;;;;;;7.60;3.40;;;21.50;44.90;;;;;;5034766;28;20029;-47
2021/04/30 11:58:57;;;;;;;5.78;2.70;;;21.50;44.90;;;;;;5035309;28;20056;-49
2021/04/30 12:01:29;;;;;;;7.45;4.20;;;21.50;45.00;;;;;;5035146;28;20058;-47
2021/04/30 12:03:56;;;;;;;6.63;3.05;;;21.50;45.20;;;;;;5035072;28;20025;-47
2021/04/30 12:06:27;;;;;;;8.15;3.45;;;21.50;45.40;;;;;;5035054;28;20029;-48
2021/04/30 12:08:55;;;;;;;7.85;2.65;;;21.50;45.40;;;;;;5034634;28;20451;-43
2021/04/30 12:11:28;;;;;;;6.78;2.80;;;21.50;45.50;;;;;;5035032;28;20075;-51
2021/04/30 12:13:55;;;;;;;10.93;3.13;;;21.60;45.60;;;;;;5035076;28;20025;-47
2021/04/30 12:16:21;;;;;;;7.53;3.33;;;21.60;45.70;;;;;;5035141;28;20344;-48
2021/04/30 12:18:48;;;;;;;11.75;4.20;;;21.60;45.60;;;;;;5033850;28;20029;-50
2021/04/30 12:21:29;;;;;;;12.95;4.22;;;21.60;45.30;;;;;;5034840;28;20127;-47
2021/04/30 12:23:56;;;;;;;10.93;4.15;;;21.60;44.90;;;;;;5035175;28;20108;-51
2021/04/30 12:26:33;;;;;;;7.20;4.03;;;21.60;44.70;;;;;;5034691;28;20051;-50
2021/04/30 12:29:05;;;;;;;14.40;4.00;;;21.60;44.50;;;;;;5034902;28;20048;-47
2021/04/30 12:31:31;;;;;;;8.95;4.10;;;21.60;44.40;;;;;;5034779;28;20045;-51
2021/04/30 12:33:56;;;;;;;10.85;4.93;;;21.50;44.40;;;;;;5034383;28;20040;-49
2021/04/30 12:36:23;;;;;;;6.22;3.42;;;21.60;44.40;;;;;;5034884;28;20048;-48
2021/04/30 12:38:54;;;;;;;7.63;3.70;;;21.50;44.40;;;;;;5034508;28;20045;-52
2021/04/30 12:41:25;;;;;;;4.05;3.53;;;21.60;44.40;;;;;;5034861;28;20025;-50
2021/04/30 12:43:54;;;;;;;7.70;3.47;;;21.60;44.40;;;;;;5034396;28;20527;-46
2021/04/30 12:46:22;;;;;;;11.73;3.67;;;21.60;44.30;;;;;;5034636;28;20032;-49
2021/04/30 12:48:50;;;;;;;6.57;3.55;;;21.60;44.30;;;;;;5038218;28;20352;-49